Time;durP1;ratioP1;P1;durP2;ratioP2;P2;SDS_P1;SDS_P2;PMS_P1;PMS_P2;Temp;Humidity;BMP_temperature;BMP_pressure;BME280_temperature;BME280_humidity;BME280_pressure;Samples;Min_cycle;Max_cycle;Signal;HPM_P1;HPM_P2
2021/12/20 00:00:38;;;;;;;1999.90;999.90;;;6.20;99.90;;;;;;5051344;28;21038;-69
2021/12/20 00:03:04;;;;;;;1999.90;999.90;;;6.20;99.90;;;;;;5051344;28;20187;-69
2021/12/20 00:05:30;;;;;;;1999.90;999.90;;;6.20;99.90;;;;;;5051093;28;20421;-69
2021/12/20 00:07:56;;;;;;;1999.90;999.90;;;6.20;99.90;;;;;;5051197;28;20425;-69
2021/12/20 00:10:22;;;;;;;1999.90;999.90;;;6.20;99.90;;;;;;5051271;28;20263;-69
2021/12/20 00:12:49;;;;;;;1999.90;999.90;;;6.20;99.90;;;;;;5056499;28;20160;-69
2021/12/20 00:15:16;;;;;;;1999.90;999.90;;;6.20;99.90;;;;;;5061712;28;20168;-69
2021/12/20 00:17:41;;;;;;;1999.90;999.90;;;6.20;99.90;;;;;;5064835;28;20515;-69
2021/12/20 00:20:08;;;;;;;1999.90;999.90;;;6.20;99.90;;;;;;5063475;28;20908;-69
2021/12/20 00:22:34;;;;;;;1999.90;999.90;;;6.20;99.90;;;;;;5063430;28;20556;-69
2021/12/20 00:25:00;;;;;;;1999.90;999.90;;;6.20;99.90;;;;;;5069489;28;20414;-70
2021/12/20 00:27:26;;;;;;;1999.90;999.90;;;6.20;99.90;;;;;;5068652;28;20950;-69
2021/12/20 00:29:51;;;;;;;1999.90;999.90;;;6.20;99.90;;;;;;5072347;28;20468;-68
2021/12/20 00:32:18;;;;;;;1999.90;999.90;;;6.20;99.90;;;;;;5065817;28;20555;-69
2021/12/20 00:34:45;;;;;;;1999.90;999.90;;;6.20;99.90;;;;;;5064308;28;20201;-69
2021/12/20 00:42:41;;;;;;;1999.90;999.90;;;6.20;99.90;;;;;;5064063;28;20405;-69
2021/12/20 00:45:09;;;;;;;1999.90;999.90;;;6.20;99.90;;;;;;5064521;28;20438;-69
2021/12/20 00:47:36;;;;;;;1999.90;999.90;;;6.20;99.90;;;;;;5065158;28;20442;-69
2021/12/20 00:50:02;;;;;;;1999.90;999.90;;;6.20;99.90;;;;;;5065606;28;20565;-70
2021/12/20 00:52:27;;;;;;;1999.90;999.90;;;6.20;99.90;;;;;;5066668;28;20410;-69
2021/12/20 00:54:53;;;;;;;1999.90;999.90;;;6.20;99.90;;;;;;5065696;28;20428;-69
2021/12/20 00:57:18;;;;;;;1999.90;999.90;;;6.20;99.90;;;;;;5064626;28;20204;-69
2021/12/20 00:59:44;;;;;;;1999.90;999.90;;;6.20;99.90;;;;;;5063369;28;20230;-69
2021/12/20 01:02:10;;;;;;;1999.90;999.90;;;6.20;99.90;;;;;;5062584;28;20630;-69
2021/12/20 01:04:35;;;;;;;1999.90;999.90;;;6.20;99.90;;;;;;5063232;28;20167;-69
2021/12/20 01:07:01;;;;;;;1999.90;999.90;;;6.20;99.90;;;;;;5063012;28;20171;-69
2021/12/20 01:09:27;;;;;;;1999.90;999.90;;;6.20;99.90;;;;;;5063428;28;20179;-69
2021/12/20 01:11:54;;;;;;;1999.90;999.90;;;6.20;99.90;;;;;;5061294;28;20176;-68
2021/12/20 01:14:25;;;;;;;1999.90;999.90;;;6.20;99.90;;;;;;5061212;28;20172;-69
2021/12/20 01:16:51;;;;;;;1999.90;999.90;;;6.20;99.90;;;;;;5062455;28;20406;-68
2021/12/20 01:19:17;;;;;;;1999.90;999.90;;;6.30;99.90;;;;;;5063751;28;20963;-68
2021/12/20 01:21:43;;;;;;;1999.90;999.90;;;6.20;99.90;;;;;;5062831;28;20470;-69
2021/12/20 01:24:09;;;;;;;1999.90;999.90;;;6.20;99.90;;;;;;5061365;28;20398;-69
2021/12/20 01:26:34;;;;;;;1999.90;999.90;;;6.20;99.90;;;;;;5062002;28;20178;-69
2021/12/20 01:29:00;;;;;;;1999.90;999.90;;;6.20;99.90;;;;;;5059546;28;20198;-69
2021/12/20 01:31:26;;;;;;;1999.90;999.90;;;6.20;99.90;;;;;;5060667;28;20206;-69
2021/12/20 01:33:52;;;;;;;1999.90;999.90;;;6.20;99.90;;;;;;5060658;28;20410;-69
2021/12/20 01:36:17;;;;;;;1999.90;999.90;;;6.20;99.90;;;;;;5060095;28;20237;-69
2021/12/20 01:38:43;;;;;;;1999.90;999.90;;;6.20;99.90;;;;;;5060787;28;20192;-69
2021/12/20 01:41:10;;;;;;;1999.90;999.90;;;6.20;99.90;;;;;;5060256;28;20546;-69
2021/12/20 01:43:37;;;;;;;1999.90;999.90;;;6.20;99.90;;;;;;5059525;28;20175;-69
2021/12/20 01:46:03;;;;;;;1999.90;999.90;;;6.20;99.90;;;;;;5055906;28;20406;-70
2021/12/20 01:48:30;;;;;;;1999.90;999.90;;;6.40;99.90;;;;;;5055987;28;20430;-69
2021/12/20 01:53:37;;;;;;;1999.90;999.90;;;6.50;99.90;;;;;;5055909;28;20457;-69
2021/12/20 01:56:03;;;;;;;1999.90;999.90;;;6.70;99.90;;;;;;5054903;28;20442;-69
2021/12/20 01:58:30;;;;;;;1999.90;999.90;;;6.70;99.90;;;;;;5055391;28;20511;-70
2021/12/20 02:01:03;;;;;;;1999.90;999.90;;;6.80;99.90;;;;;;5054740;28;20449;-69
2021/12/20 02:03:31;;;;;;;1999.90;999.90;;;6.80;99.90;;;;;;5055199;28;20460;-69
2021/12/20 02:05:59;;;;;;;1999.90;999.90;;;6.90;99.90;;;;;;5054660;28;20430;-70
2021/12/20 02:08:28;;;;;;;1999.90;999.90;;;6.90;99.90;;;;;;5054537;28;20426;-69
2021/12/20 02:11:00;;;;;;;1999.90;999.90;;;7.00;99.90;;;;;;5054012;28;20934;-68
2021/12/20 02:13:31;;;;;;;1999.90;999.90;;;7.00;99.90;;;;;;5054000;28;20418;-69
2021/12/20 02:15:57;;;;;;;1999.90;999.90;;;7.00;99.90;;;;;;5054135;28;20766;-69
2021/12/20 02:18:23;;;;;;;1999.90;999.90;;;7.00;99.90;;;;;;5054125;28;20433;-69
2021/12/20 02:20:49;;;;;;;1999.90;999.90;;;7.00;99.90;;;;;;5053873;28;20842;-69
2021/12/20 02:23:15;;;;;;;1999.90;999.90;;;7.00;99.90;;;;;;5053422;28;20425;-69
2021/12/20 02:25:40;;;;;;;1999.90;999.90;;;7.00;99.90;;;;;;5053753;28;20406;-69
2021/12/20 02:28:12;;;;;;;1999.90;999.90;;;7.00;99.90;;;;;;5053040;28;20188;-69
2021/12/20 02:36:54;;;;;;;1999.90;999.90;;;7.10;99.90;;;;;;5051329;28;20180;-69
2021/12/20 02:39:05;;;;;;;1999.90;999.90;;;7.00;99.90;;;;;;5051244;28;20463;-69
2021/12/20 02:41:32;;;;;;;1999.90;999.90;;;6.90;99.90;;;;;;5052347;28;20406;-69
2021/12/20 02:44:03;;;;;;;1999.90;999.90;;;6.80;99.90;;;;;;5052512;28;20171;-68
2021/12/20 02:49:02;;;;;;;1999.90;999.90;;;6.70;99.90;;;;;;5053033;28;20947;-69
2021/12/20 02:51:28;;;;;;;1999.90;999.90;;;6.70;99.90;;;;;;5053051;28;20402;-69
2021/12/20 02:53:57;;;;;;;1999.90;999.90;;;6.70;99.90;;;;;;5052900;28;20418;-69
2021/12/20 02:56:23;;;;;;;1999.90;999.90;;;6.70;99.90;;;;;;5052396;28;20516;-69
2021/12/20 02:58:49;;;;;;;1999.90;999.90;;;6.80;99.90;;;;;;5051840;28;20450;-69
2021/12/20 03:01:15;;;;;;;1999.90;999.90;;;6.80;99.90;;;;;;5052015;28;20438;-69
2021/12/20 03:03:41;;;;;;;1999.90;999.90;;;6.70;99.90;;;;;;5051950;28;20479;-69
2021/12/20 03:06:19;;;;;;;1999.90;999.90;;;6.60;99.90;;;;;;5051648;28;20403;-69
2021/12/20 03:08:48;;;;;;;1999.90;999.90;;;6.60;99.90;;;;;;5051976;28;20792;-69
2021/12/20 03:11:14;;;;;;;1999.90;999.90;;;6.60;99.90;;;;;;5051897;28;20398;-69
2021/12/20 03:13:41;;;;;;;1999.90;999.90;;;6.60;99.90;;;;;;5051787;28;20408;-69
2021/12/20 03:16:07;;;;;;;1999.90;999.90;;;6.70;99.90;;;;;;5051551;28;20432;-69
2021/12/20 03:18:32;;;;;;;1999.90;999.90;;;6.70;99.90;;;;;;5051694;28;20418;-69
2021/12/20 03:20:58;;;;;;;1999.90;999.90;;;6.70;99.90;;;;;;5051731;28;20270;-69
2021/12/20 03:23:23;;;;;;;1999.90;999.90;;;6.60;99.90;;;;;;5051786;28;20648;-69
2021/12/20 03:25:49;;;;;;;1999.90;999.90;;;6.60;99.90;;;;;;5051456;28;20217;-69
2021/12/20 03:28:15;;;;;;;1999.90;999.90;;;6.60;99.90;;;;;;5051824;28;20195;-69
2021/12/20 03:30:41;;;;;;;1999.90;999.90;;;6.60;99.90;;;;;;5052616;28;20242;-69
2021/12/20 03:33:06;;;;;;;1999.90;999.90;;;6.70;99.90;;;;;;5052449;28;20263;-69
2021/12/20 03:35:32;;;;;;;1999.90;999.90;;;6.80;99.90;;;;;;5052249;28;20411;-69
2021/12/20 03:37:58;;;;;;;1999.90;999.90;;;6.80;99.90;;;;;;5052894;28;20183;-69
2021/12/20 03:40:23;;;;;;;1999.90;999.90;;;6.90;99.90;;;;;;5057903;28;20316;-70
2021/12/20 03:42:49;;;;;;;1999.90;999.90;;;6.90;99.90;;;;;;5058092;28;20171;-69
2021/12/20 03:45:16;;;;;;;1999.90;999.90;;;6.90;99.90;;;;;;5058975;28;20498;-69
2021/12/20 03:47:42;;;;;;;1999.90;999.90;;;6.80;99.90;;;;;;5060763;28;20803;-69
2021/12/20 03:50:10;;;;;;;1999.90;999.90;;;6.70;99.90;;;;;;5061645;28;20402;-69
2021/12/20 03:52:39;;;;;;;1999.90;999.90;;;6.60;99.90;;;;;;5067458;28;20441;-69
2021/12/20 03:55:09;;;;;;;1999.90;999.90;;;6.60;99.90;;;;;;5063129;28;20409;-70
2021/12/20 03:57:35;;;;;;;1999.90;999.90;;;6.50;99.90;;;;;;5055328;28;20972;-69
2021/12/20 04:00:03;;;;;;;1999.90;999.90;;;6.40;99.90;;;;;;5055596;28;20449;-69
2021/12/20 04:02:36;;;;;;;1999.90;999.90;;;6.40;99.90;;;;;;5055409;28;20171;-70
2021/12/20 04:05:02;;;;;;;1999.90;999.90;;;6.30;99.90;;;;;;5055269;28;20399;-68
2021/12/20 04:07:27;;;;;;;1999.90;999.90;;;6.30;99.90;;;;;;5055580;28;20425;-69
2021/12/20 04:09:53;;;;;;;1999.90;999.90;;;6.40;99.90;;;;;;5055274;28;20199;-70
2021/12/20 04:12:18;;;;;;;1999.90;999.90;;;6.50;99.90;;;;;;5055308;28;20656;-69
2021/12/20 04:14:44;;;;;;;1999.90;999.90;;;6.50;99.90;;;;;;5055043;28;20172;-68
2021/12/20 04:17:09;;;;;;;1999.90;999.90;;;6.60;99.90;;;;;;5055185;28;20176;-69
2021/12/20 04:19:35;;;;;;;1999.90;999.90;;;6.60;99.90;;;;;;5056389;28;20214;-69
2021/12/20 04:22:01;;;;;;;1999.90;999.90;;;6.70;99.90;;;;;;5063001;28;20282;-70
2021/12/20 04:24:26;;;;;;;1999.90;999.90;;;6.70;99.90;;;;;;5061870;28;20178;-69
2021/12/20 04:26:52;;;;;;;1999.90;999.90;;;6.70;99.90;;;;;;5062712;28;20184;-69
2021/12/20 04:29:19;;;;;;;1999.90;999.90;;;6.70;99.90;;;;;;5061104;28;20191;-69
2021/12/20 04:31:45;;;;;;;1999.90;999.90;;;6.70;99.90;;;;;;5062165;28;20182;-69
2021/12/20 04:34:11;;;;;;;1999.90;999.90;;;6.60;99.90;;;;;;5062240;28;20406;-69
2021/12/20 04:36:36;;;;;;;1999.90;999.90;;;6.60;99.90;;;;;;5062195;28;20449;-69
2021/12/20 04:39:07;;;;;;;1999.90;999.90;;;6.60;99.90;;;;;;5062526;28;20239;-69
2021/12/20 04:41:32;;;;;;;1999.90;999.90;;;6.60;99.90;;;;;;5062691;28;20194;-69
2021/12/20 04:43:58;;;;;;;1999.90;999.90;;;6.50;99.90;;;;;;5062785;28;20406;-68
2021/12/20 04:46:23;;;;;;;1999.90;999.90;;;6.50;99.90;;;;;;5063353;28;20164;-69
2021/12/20 04:48:49;;;;;;;1999.90;999.90;;;6.50;99.90;;;;;;5059052;28;20234;-68
2021/12/20 04:51:15;;;;;;;1999.90;999.90;;;6.50;99.90;;;;;;5054612;28;20176;-68
2021/12/20 04:53:40;;;;;;;1999.90;999.90;;;6.60;99.90;;;;;;5054641;28;20171;-69
2021/12/20 04:56:06;;;;;;;1999.90;999.90;;;6.50;99.90;;;;;;5054409;28;20160;-69
2021/12/20 04:58:31;;;;;;;1999.90;999.90;;;6.50;99.90;;;;;;5054437;28;20286;-69
2021/12/20 05:00:57;;;;;;;1999.90;999.90;;;6.50;99.90;;;;;;5054525;28;20574;-69
2021/12/20 05:03:23;;;;;;;1999.90;999.90;;;6.40;99.90;;;;;;5053164;28;20172;-69
2021/12/20 05:05:48;;;;;;;1999.90;999.90;;;6.40;99.90;;;;;;5053898;28;20229;-69
2021/12/20 05:08:15;;;;;;;1999.90;999.90;;;6.50;99.90;;;;;;5054541;28;20192;-70
2021/12/20 05:10:41;;;;;;;1999.90;999.90;;;6.50;99.90;;;;;;5054220;28;20191;-69
2021/12/20 05:13:11;;;;;;;1999.90;999.90;;;6.50;99.90;;;;;;5054249;28;20752;-69
2021/12/20 05:15:38;;;;;;;1999.90;999.90;;;6.50;99.90;;;;;;5053910;28;20796;-69
2021/12/20 05:18:07;;;;;;;1999.90;999.90;;;6.50;99.90;;;;;;5054012;28;20924;-69
2021/12/20 05:20:32;;;;;;;1999.90;999.90;;;6.40;99.90;;;;;;5053847;28;20495;-70
2021/12/20 05:22:59;;;;;;;1999.90;999.90;;;6.40;99.90;;;;;;5053974;28;20402;-69
2021/12/20 05:25:25;;;;;;;1999.90;999.90;;;6.50;99.90;;;;;;5053864;28;20485;-69
2021/12/20 05:27:51;;;;;;;1999.90;999.90;;;6.60;99.90;;;;;;5053910;28;20821;-69
2021/12/20 05:30:17;;;;;;;1999.90;999.90;;;6.60;99.90;;;;;;5053651;28;20453;-69
2021/12/20 05:32:43;;;;;;;1999.90;999.90;;;6.70;99.90;;;;;;5053669;28;20206;-69
2021/12/20 05:35:11;;;;;;;1999.90;999.90;;;6.70;99.90;;;;;;5053223;28;21107;-69
2021/12/20 05:37:37;;;;;;;1999.90;999.90;;;6.70;99.90;;;;;;5053644;28;20430;-68
2021/12/20 05:40:05;;;;;;;1999.90;999.90;;;6.70;99.90;;;;;;5053423;28;20966;-69
2021/12/20 05:42:31;;;;;;;1999.90;999.90;;;6.80;99.90;;;;;;5053485;28;20680;-69
2021/12/20 05:44:56;;;;;;;1999.90;999.90;;;6.70;99.90;;;;;;5053108;28;20468;-69
2021/12/20 05:47:22;;;;;;;1999.90;999.90;;;6.80;99.90;;;;;;5053350;28;20437;-69
2021/12/20 05:49:49;;;;;;;1999.90;999.90;;;6.80;99.90;;;;;;5053285;28;20183;-69
2021/12/20 05:52:15;;;;;;;1999.90;999.90;;;6.80;99.90;;;;;;5053538;28;20222;-69
2021/12/20 05:54:41;;;;;;;1999.90;999.90;;;6.80;99.90;;;;;;5052937;28;20445;-70
2021/12/20 05:57:06;;;;;;;1999.90;999.90;;;6.80;99.90;;;;;;5053069;28;20183;-69
2021/12/20 05:59:33;;;;;;;1999.90;999.90;;;6.80;99.90;;;;;;5053069;28;20191;-69
2021/12/20 06:01:58;;;;;;;1999.90;999.90;;;6.80;99.90;;;;;;5053031;28;20163;-69
2021/12/20 06:04:24;;;;;;;1999.90;999.90;;;6.90;99.90;;;;;;5052700;28;20403;-69
2021/12/20 06:06:49;;;;;;;1999.90;999.90;;;6.90;99.90;;;;;;5052995;28;20619;-69
2021/12/20 06:09:15;;;;;;;1999.90;999.90;;;6.90;99.90;;;;;;5052933;28;20195;-70
2021/12/20 06:11:41;;;;;;;1999.90;999.90;;;6.90;99.90;;;;;;5052910;28;20176;-69
2021/12/20 06:14:07;;;;;;;1999.90;999.90;;;6.90;99.90;;;;;;5052365;28;20173;-69
2021/12/20 06:16:33;;;;;;;1999.90;999.90;;;6.90;99.90;;;;;;5052818;28;20180;-69
2021/12/20 06:18:58;;;;;;;1999.90;999.90;;;7.00;99.90;;;;;;5052599;28;20435;-69
2021/12/20 06:21:24;;;;;;;1999.90;999.90;;;6.90;99.90;;;;;;5052812;28;20301;-68
2021/12/20 06:23:49;;;;;;;1999.90;999.90;;;6.90;99.90;;;;;;5052722;28;20168;-69
2021/12/20 06:26:15;;;;;;;1999.90;999.90;;;6.90;99.90;;;;;;5052482;28;20172;-69
2021/12/20 06:28:42;;;;;;;1999.90;999.90;;;6.90;99.90;;;;;;5052543;28;20191;-69
2021/12/20 06:31:07;;;;;;;1999.90;999.90;;;6.90;99.90;;;;;;5052512;28;20424;-69
2021/12/20 06:33:33;;;;;;;1999.90;999.90;;;7.00;99.90;;;;;;5052543;28;20856;-69
2021/12/20 06:35:59;;;;;;;1999.90;999.90;;;6.90;99.90;;;;;;5052251;28;20186;-69
2021/12/20 06:38:24;;;;;;;1999.90;999.90;;;7.00;99.90;;;;;;5052349;28;20234;-69
2021/12/20 06:40:52;;;;;;;1999.90;999.90;;;7.00;99.90;;;;;;5052513;28;20227;-69
2021/12/20 06:43:18;;;;;;;1999.90;999.90;;;6.90;99.90;;;;;;5052593;28;20164;-69
2021/12/20 06:45:45;;;;;;;1999.90;999.90;;;7.00;99.90;;;;;;5052137;28;20489;-69
2021/12/20 06:48:10;;;;;;;1999.90;999.90;;;6.90;99.90;;;;;;5052282;28;20422;-70
2021/12/20 06:50:36;;;;;;;1999.90;999.90;;;6.90;99.90;;;;;;5052408;28;20973;-69
2021/12/20 06:53:03;;;;;;;1999.90;999.90;;;6.80;99.90;;;;;;5052124;28;20167;-69
2021/12/20 06:55:29;;;;;;;1999.90;999.90;;;6.80;99.90;;;;;;5052043;28;20172;-69
2021/12/20 06:57:54;;;;;;;1999.90;999.90;;;6.80;99.90;;;;;;5051890;28;20452;-69
2021/12/20 07:00:21;;;;;;;1999.90;999.90;;;6.80;99.90;;;;;;5052110;28;20617;-69
2021/12/20 07:02:46;;;;;;;1999.90;999.90;;;6.80;99.90;;;;;;5052125;28;20167;-69
2021/12/20 07:05:12;;;;;;;1999.90;999.90;;;6.80;99.90;;;;;;5051782;28;20402;-69
2021/12/20 07:07:38;;;;;;;1999.90;999.90;;;6.80;99.90;;;;;;5052198;28;20248;-69
2021/12/20 07:10:05;;;;;;;1999.90;999.90;;;6.80;99.90;;;;;;5052083;28;20171;-69
2021/12/20 07:12:33;;;;;;;1999.90;999.90;;;6.80;99.90;;;;;;5052071;28;20878;-69
2021/12/20 07:14:59;;;;;;;1999.90;999.90;;;6.80;99.90;;;;;;5051709;28;20912;-69
2021/12/20 07:17:25;;;;;;;1999.90;999.90;;;6.80;99.90;;;;;;5051790;28;20434;-69
2021/12/20 07:19:50;;;;;;;1999.90;999.90;;;6.90;99.90;;;;;;5051790;28;20202;-69
2021/12/20 07:22:16;;;;;;;1999.90;999.90;;;6.90;99.90;;;;;;5051878;28;20517;-70
2021/12/20 07:24:41;;;;;;;1999.90;999.90;;;6.90;99.90;;;;;;5051092;28;20168;-69
2021/12/20 07:27:08;;;;;;;1999.90;999.90;;;6.90;99.90;;;;;;5051514;28;20172;-70
2021/12/20 07:29:34;;;;;;;1999.90;999.90;;;7.00;99.90;;;;;;5051750;28;20167;-69
2021/12/20 07:31:59;;;;;;;1999.90;999.90;;;7.00;99.90;;;;;;5051805;28;20412;-69
2021/12/20 07:34:25;;;;;;;1999.90;999.90;;;7.00;99.90;;;;;;5051665;28;20526;-69
2021/12/20 07:36:52;;;;;;;1999.90;999.90;;;7.00;99.90;;;;;;5051696;28;20172;-69
2021/12/20 07:39:18;;;;;;;1999.90;999.90;;;7.00;99.90;;;;;;5051631;28;20552;-69
2021/12/20 07:41:44;;;;;;;1999.90;999.90;;;7.00;99.90;;;;;;5051611;28;20417;-69
2021/12/20 07:44:10;;;;;;;1999.90;999.90;;;7.00;99.90;;;;;;5051448;28;20195;-69
2021/12/20 07:46:35;;;;;;;1999.90;999.90;;;7.00;99.90;;;;;;5051505;28;20772;-69
2021/12/20 07:49:02;;;;;;;1999.90;999.90;;;7.00;99.90;;;;;;5051574;28;20183;-69
2021/12/20 07:51:27;;;;;;;1999.90;999.90;;;7.00;99.90;;;;;;5051658;28;20156;-69
2021/12/20 07:53:53;;;;;;;1999.90;999.90;;;7.00;99.90;;;;;;5051542;28;20536;-69
2021/12/20 07:56:19;;;;;;;1999.90;999.90;;;7.00;99.90;;;;;;5051282;28;20630;-69
2021/12/20 07:58:44;;;;;;;1999.90;999.90;;;7.00;99.90;;;;;;5051406;28;20235;-70
2021/12/20 08:01:10;;;;;;;1999.90;999.90;;;7.00;99.90;;;;;;5051445;28;20191;-69
2021/12/20 08:03:38;;;;;;;1999.90;999.90;;;7.00;99.90;;;;;;5051702;28;20814;-70
2021/12/20 08:06:04;;;;;;;1999.90;999.90;;;7.00;99.90;;;;;;5051492;28;20171;-69
2021/12/20 08:08:30;;;;;;;1999.90;999.90;;;7.00;99.90;;;;;;5051824;28;20985;-69
2021/12/20 08:10:56;;;;;;;1999.90;999.90;;;7.00;99.90;;;;;;5051516;28;20441;-69
2021/12/20 08:13:21;;;;;;;1999.90;999.90;;;7.00;99.90;;;;;;5047938;28;20692;-69
2021/12/20 08:15:47;;;;;;;1999.90;999.90;;;7.00;99.90;;;;;;5049635;28;20896;-69
2021/12/20 08:18:13;;;;;;;1999.90;999.90;;;7.00;99.90;;;;;;5050265;28;20192;-70
2021/12/20 08:20:39;;;;;;;1999.90;999.90;;;7.00;99.90;;;;;;5050164;28;20249;-69
2021/12/20 08:23:05;;;;;;;1999.90;999.90;;;7.00;99.90;;;;;;5051452;28;20665;-68
2021/12/20 08:25:30;;;;;;;1999.90;999.90;;;7.10;99.90;;;;;;5050484;28;20402;-69
2021/12/20 08:27:56;;;;;;;1999.90;999.90;;;7.10;99.90;;;;;;5050693;28;20230;-69
2021/12/20 08:30:22;;;;;;;1999.90;999.90;;;7.10;99.90;;;;;;5050875;28;20403;-69
2021/12/20 08:32:49;;;;;;;1999.90;999.90;;;7.10;99.90;;;;;;5051075;28;20485;-70
2021/12/20 08:35:15;;;;;;;1999.90;999.90;;;7.10;99.90;;;;;;5050180;28;20175;-71
2021/12/20 08:37:42;;;;;;;1999.90;999.90;;;7.20;99.90;;;;;;5052537;28;20461;-68
2021/12/20 08:40:11;;;;;;;1999.90;999.90;;;7.20;99.90;;;;;;5054128;28;20496;-70
2021/12/20 08:42:37;;;;;;;1999.90;999.90;;;7.20;99.90;;;;;;5053919;28;20439;-71
2021/12/20 08:45:05;;;;;;;1999.90;999.90;;;7.20;99.90;;;;;;5045501;28;20755;-69
2021/12/20 08:47:32;;;;;;;1999.90;999.90;;;7.30;99.90;;;;;;4952663;28;20435;-68
2021/12/20 08:49:59;;;;;;;1999.90;999.90;;;7.20;99.90;;;;;;4952334;28;20415;-71
2021/12/20 08:52:25;;;;;;;1999.90;999.90;;;7.20;99.90;;;;;;4952378;28;20904;-70
2021/12/20 08:54:50;;;;;;;1999.90;999.90;;;7.30;99.90;;;;;;4952348;28;20429;-69
2021/12/20 08:57:16;;;;;;;1999.90;999.90;;;7.30;99.90;;;;;;4952101;28;20190;-69
2021/12/20 08:59:41;;;;;;;1999.90;999.90;;;7.40;99.90;;;;;;4950196;28;20209;-69
2021/12/20 09:02:09;;;;;;;1999.90;999.90;;;7.40;99.90;;;;;;4950488;28;20707;-69
2021/12/20 09:04:35;;;;;;;1999.90;999.90;;;7.40;99.90;;;;;;4947764;28;20188;-69
2021/12/20 09:07:01;;;;;;;1999.90;999.90;;;7.40;99.90;;;;;;4949307;28;20927;-69
2021/12/20 09:09:27;;;;;;;1999.90;999.90;;;7.50;99.90;;;;;;4948809;28;20518;-68
2021/12/20 09:11:53;;;;;;;1999.90;999.90;;;7.50;99.90;;;;;;4947463;28;20505;-68
2021/12/20 09:14:19;;;;;;;1999.90;999.90;;;7.50;99.90;;;;;;4948817;28;20425;-69
2021/12/20 09:16:44;;;;;;;1999.90;999.90;;;7.50;99.90;;;;;;4949002;28;20241;-69
2021/12/20 09:19:10;;;;;;;1999.90;999.90;;;7.60;99.90;;;;;;4948317;28;20325;-68
2021/12/20 09:21:35;;;;;;;1999.90;999.90;;;7.60;99.90;;;;;;4948730;28;20189;-70
2021/12/20 09:24:03;;;;;;;1999.90;999.90;;;7.60;99.90;;;;;;4949202;28;20179;-70
2021/12/20 09:26:29;;;;;;;1999.90;999.90;;;7.60;99.90;;;;;;4948331;28;20175;-70
2021/12/20 09:28:55;;;;;;;1999.90;999.90;;;7.60;99.90;;;;;;4948824;28;20437;-69
2021/12/20 09:31:21;;;;;;;1999.90;999.90;;;7.50;99.90;;;;;;4948268;28;20506;-68
2021/12/20 09:33:46;;;;;;;1999.90;999.90;;;7.50;99.90;;;;;;4949372;28;20241;-68
2021/12/20 09:36:12;;;;;;;1999.90;999.90;;;7.50;99.90;;;;;;4948756;28;20210;-69
2021/12/20 09:38:38;;;;;;;1999.90;999.90;;;7.40;99.90;;;;;;4948116;28;20222;-69
2021/12/20 09:43:38;;;;;;;1999.90;999.90;;;7.40;99.90;;;;;;4948619;28;20178;-69
2021/12/20 09:46:04;;;;;;;1999.90;999.90;;;7.30;99.90;;;;;;4948269;28;20920;-69
2021/12/20 09:48:30;;;;;;;1999.90;999.90;;;7.20;99.90;;;;;;4947948;28;20849;-69
2021/12/20 09:50:57;;;;;;;1999.90;999.90;;;7.20;99.90;;;;;;4948627;28;20426;-69
2021/12/20 09:53:23;;;;;;;1999.90;999.90;;;7.10;99.90;;;;;;4948460;28;21159;-69
2021/12/20 09:55:51;;;;;;;1999.90;999.90;;;7.20;99.90;;;;;;4931130;29;20430;-69
2021/12/20 09:58:20;;;;;;;1999.90;999.90;;;7.20;99.90;;;;;;4948057;28;20956;-69
2021/12/20 10:00:47;;;;;;;1999.90;999.90;;;7.30;99.90;;;;;;4948133;28;20465;-69
2021/12/20 10:03:13;;;;;;;1999.90;999.90;;;7.40;99.90;;;;;;4947919;28;20415;-69
2021/12/20 10:05:40;;;;;;;1999.90;999.90;;;7.50;99.90;;;;;;4948448;28;20923;-69
2021/12/20 10:08:14;;;;;;;1999.90;999.90;;;7.60;99.90;;;;;;4948029;28;20427;-69
2021/12/20 10:10:46;;;;;;;1999.90;999.90;;;7.70;99.90;;;;;;4947669;28;20419;-69
2021/12/20 10:13:31;;;;;;;1999.90;999.90;;;7.70;99.90;;;;;;4947731;28;20418;-69
2021/12/20 10:15:58;;;;;;;1999.90;999.90;;;7.80;99.90;;;;;;4947840;28;20526;-69
2021/12/20 10:18:26;;;;;;;1999.90;999.90;;;7.80;99.90;;;;;;4947373;28;20446;-69
2021/12/20 10:20:58;;;;;;;1999.90;999.90;;;7.90;99.90;;;;;;4948056;28;21019;-68
2021/12/20 10:23:32;;;;;;;1999.90;999.90;;;8.00;99.90;;;;;;4947283;28;20415;-68
2021/12/20 10:26:01;;;;;;;1999.90;999.90;;;8.10;99.90;;;;;;4946719;28;21212;-69
2021/12/20 10:28:33;;;;;;;1999.90;999.90;;;8.10;99.90;;;;;;4947040;28;20451;-69
2021/12/20 10:31:06;;;;;;;1999.90;999.90;;;8.20;99.90;;;;;;4945931;28;20842;-68
2021/12/20 10:33:31;;;;;;;1999.90;999.90;;;8.20;99.90;;;;;;4945184;29;20477;-69
2021/12/20 10:36:00;;;;;;;1999.90;999.90;;;8.30;99.90;;;;;;4946645;28;20980;-69
2021/12/20 10:38:33;;;;;;;1999.90;999.90;;;8.30;99.90;;;;;;4946866;28;20631;-68
2021/12/20 10:41:11;;;;;;;1999.90;999.90;;;8.40;99.90;;;;;;4951151;28;20466;-70
2021/12/20 10:43:44;;;;;;;1999.90;999.90;;;8.50;99.90;;;;;;4948201;28;20441;-69
2021/12/20 10:46:13;;;;;;;1999.90;999.90;;;8.60;99.90;;;;;;4934979;29;20411;-69
2021/12/20 10:48:38;;;;;;;1999.90;999.90;;;8.60;99.90;;;;;;4957387;28;20469;-69
2021/12/20 10:51:05;;;;;;;1999.90;999.90;;;8.70;99.90;;;;;;4949828;28;20451;-69
2021/12/20 10:53:30;;;;;;;1999.90;999.90;;;8.80;99.90;;;;;;4950074;28;20176;-69
2021/12/20 10:56:06;;;;;;;1999.90;999.90;;;8.80;99.90;;;;;;4949423;28;20417;-69
2021/12/20 10:58:38;;;;;;;1999.90;999.90;;;8.90;99.90;;;;;;4949358;28;20643;-69
2021/12/20 11:01:16;;;;;;;1999.90;999.90;;;9.00;99.90;;;;;;4948271;28;20490;-69
2021/12/20 11:03:44;;;;;;;1999.90;999.90;;;9.10;99.90;;;;;;4949477;28;20917;-69
2021/12/20 11:11:26;;;;;;;1999.90;999.90;;;9.50;99.90;;;;;;4949512;29;20395;-69
2021/12/20 11:13:52;;;;;;;1999.90;999.90;;;9.60;99.90;;;;;;4952922;28;20415;-69
2021/12/20 11:16:28;;;;;;;1999.90;999.90;;;9.90;99.90;;;;;;4949012;28;20836;-69
2021/12/20 11:19:09;;;;;;;1999.90;999.90;;;10.30;99.90;;;;;;4949304;28;20279;-69
2021/12/20 11:21:35;;;;;;;1999.90;999.90;;;10.80;99.90;;;;;;4949716;28;20781;-70
2021/12/20 11:24:02;;;;;;;1999.90;999.90;;;11.30;99.90;;;;;;4949044;28;20926;-70
2021/12/20 11:26:28;;;;;;;1999.90;999.90;;;11.70;99.90;;;;;;4949377;28;20766;-70
2021/12/20 11:28:55;;;;;;;1999.90;999.90;;;12.40;99.90;;;;;;4949759;28;20423;-70
2021/12/20 11:31:21;;;;;;;1999.90;999.90;;;12.90;99.90;;;;;;4949438;28;20399;-70
2021/12/20 11:33:46;;;;;;;1999.90;999.90;;;13.40;99.90;;;;;;4949248;28;20411;-70
2021/12/20 11:36:12;;;;;;;1999.90;999.90;;;13.90;99.90;;;;;;4949246;28;20171;-70
2021/12/20 11:38:39;;;;;;;1999.90;999.90;;;14.40;99.90;;;;;;4949124;28;20194;-70
2021/12/20 11:41:05;;;;;;;1999.90;999.90;;;14.80;99.90;;;;;;4949210;28;20192;-70
2021/12/20 11:43:32;;;;;;;1999.90;999.90;;;15.10;99.90;;;;;;4949534;28;20407;-70
2021/12/20 11:45:59;;;;;;;1999.90;999.90;;;15.50;99.90;;;;;;4948825;28;20410;-70
2021/12/20 11:48:27;;;;;;;1999.90;999.90;;;15.70;99.90;;;;;;4946891;28;20804;-70
2021/12/20 11:50:57;;;;;;;1999.90;999.90;;;16.10;99.90;;;;;;4940979;28;20585;-70
2021/12/20 11:53:23;;;;;;;1999.90;999.90;;;16.20;97.30;;;;;;4949819;28;20423;-70
2021/12/20 11:55:51;;;;;;;1999.90;999.90;;;16.50;96.80;;;;;;4949028;28;20830;-68
2021/12/20 11:58:22;;;;;;;1999.90;999.90;;;16.80;95.50;;;;;;4949059;28;20304;-69
2021/12/20 12:00:54;;;;;;;1999.90;999.90;;;17.20;91.00;;;;;;4949473;28;20822;-69
2021/12/20 12:03:26;;;;;;;1999.90;999.90;;;17.30;88.50;;;;;;4949649;28;20403;-69
2021/12/20 12:05:57;;;;;;;1999.90;999.90;;;17.70;83.20;;;;;;4949575;28;20408;-66
2021/12/20 12:08:52;;;;;;;1999.90;999.90;;;17.70;78.60;;;;;;4949248;28;20433;-67
2021/12/20 12:11:19;;;;;;;1999.90;999.90;;;16.90;74.00;;;;;;4950339;28;20885;-68
2021/12/20 12:13:58;;;;;;;1999.90;999.90;;;16.40;79.60;;;;;;4952674;28;20466;-68
2021/12/20 12:16:58;;;;;;;1999.90;999.90;;;16.50;80.90;;;;;;4952473;28;20415;-68
2021/12/20 12:19:47;;;;;;;1999.90;999.90;;;16.60;78.00;;;;;;4952200;28;20476;-68
2021/12/20 12:22:40;;;;;;;1999.90;999.90;;;16.10;77.10;;;;;;4953106;28;20418;-68
2021/12/20 12:25:12;;;;;;;1999.90;999.90;;;15.50;81.20;;;;;;4952488;28;20398;-68
2021/12/20 12:27:41;;;;;;;1999.90;999.90;;;15.00;83.80;;;;;;4953052;28;20424;-68
2021/12/20 12:30:12;;;;;;;1999.90;999.90;;;14.20;85.40;;;;;;4952827;28;20407;-68
2021/12/20 12:32:44;;;;;;;1999.90;999.90;;;13.60;88.70;;;;;;4952363;28;20879;-68